Pointe-Lebel, Canada
Current Conditions -  °F | °C
As of 4:00 AM on Sunday 23 Nov 2014 (Local Time) from CYBC Reporting Station
Overcast Overcast  
Wind Chill: 21°   Ceiling: 6000
Heat Index: 34°   Visibility: 9mi
Dew Point: 30°   Wind: 24mph
Humidity: 87%   Direction: 250°WSW
Pressure: 29.68"   Gusts: NA
Location:  49.15°N, 68.2°W
Report Text: CYBC 230900Z AUTO 25021KT 9SM FEW046 OVC060 01/M01 A2968 RMK SLP051
Loading
Personal Weather Stations






























Interactive Weather Map New forecast layout! Learn more

10-Day Weather Forecast

Advertisements
Track Severe Weather on mobile